Terminal Aerodrome Forecast
Issued by NWS

Home | Current Version | Previous Version | Text Only | Print | Product List | Glossary On
Versions: 1 2 3 4 5 6 7 8 9 10 11 12 13 14 15 16 17 18 19 20 21 22 23 24 25 26 27 28 29 30 31 32 33 34 35 36 37 38 39 40 41 42 43 44 45
000
FTUS46 KEKA 312215 AAA
TAFACV
TAF AMD
KACV 312215Z 3122/0118 32012G20KT 6SM HZ SKC
     FM010300 34009G16KT 6SM BR SCT012
     FM010600 36005KT 6SM BR BKN008 BKN012
     FM011000 VRB03KT 4SM BR SCT004 OVC006
     FM011400 34004KT 2SM BR BKN004 OVC007=

USA.gov is the U.S. government's official web portal to all federal, state and local government web resources and services.